Time;durP1;ratioP1;P1;durP2;ratioP2;P2;SDS_P1;SDS_P2;PMS_P1;PMS_P2;Temp;Humidity;BMP_temperature;BMP_pressure;BME280_temperature;BME280_humidity;BME280_pressure;Samples;Min_cycle;Max_cycle;Signal;HPM_P1;HPM_P2
2022/04/05 00:00:22;;;;;;;2.92;1.02;;;;;;;;;;5047649;28;20037;-64
2022/04/05 00:02:49;;;;;;;5.30;0.80;;;;;;;;;;5045618;28;20045;-65
2022/04/05 00:05:17;;;;;;;2.17;0.70;;;;;;;;;;5024074;28;20055;-64
2022/04/05 00:07:44;;;;;;;2.22;0.70;;;;;;;;;;5017566;28;20038;-64
2022/04/05 00:10:11;;;;;;;4.75;0.88;;;;;;;;;;5020412;28;20171;-63
2022/04/05 00:12:38;;;;;;;1.38;0.52;;;;;;;;;;5030777;28;20078;-63
2022/04/05 00:15:05;;;;;;;6.25;0.60;;;;;;;;;;5056348;28;20338;-63
2022/04/05 00:17:32;;;;;;;2.47;0.60;;;;;;;;;;5040160;28;20061;-64
2022/04/05 00:19:59;;;;;;;1.75;0.55;;;;;;;;;;5018361;28;20037;-64
2022/04/05 00:22:26;;;;;;;4.10;0.60;;;;;;;;;;5019875;28;20053;-64
2022/04/05 00:24:52;;;;;;;1.70;0.40;;;;;;;;;;5041937;28;20025;-64
2022/04/05 00:27:21;;;;;;;2.03;0.57;;;;;;;;;;5031275;28;20131;-64
2022/04/05 00:29:48;;;;;;;1.25;0.50;;;;;;;;;;5041282;28;20094;-64
2022/04/05 00:32:15;;;;;;;3.60;0.50;;;;;;;;;;5042839;28;20044;-64
2022/04/05 00:34:41;;;;;;;1.55;0.50;;;;;;;;;;5039570;28;20067;-64
2022/04/05 00:37:08;;;;;;;3.55;0.60;;;;;;;;;;5055300;28;20108;-65
2022/04/05 00:39:35;;;;;;;4.18;0.73;;;;;;;;;;5037616;28;20130;-64
2022/04/05 00:42:02;;;;;;;3.30;0.60;;;;;;;;;;5017588;28;20041;-65
2022/04/05 00:44:29;;;;;;;1.55;0.40;;;;;;;;;;5016727;28;20501;-64
2022/04/05 00:46:55;;;;;;;1.08;0.40;;;;;;;;;;5022957;28;20048;-65
2022/04/05 00:49:31;;;;;;;1.20;0.40;;;;;;;;;;5032313;28;20038;-66
2022/04/05 00:52:00;;;;;;;1.80;0.40;;;;;;;;;;5043447;28;20120;-65
2022/04/05 00:54:29;;;;;;;1.10;0.40;;;;;;;;;;5041827;28;20058;-64
2022/04/05 00:56:57;;;;;;;1.58;0.47;;;;;;;;;;5043989;28;20107;-64
2022/04/05 00:59:25;;;;;;;3.45;0.55;;;;;;;;;;5034366;28;20828;-65
2022/04/05 01:01:52;;;;;;;7.38;1.17;;;;;;;;;;5034020;28;20682;-65
2022/04/05 01:04:20;;;;;;;1.30;0.52;;;;;;;;;;5044194;28;20069;-64
2022/04/05 01:06:48;;;;;;;10.50;1.30;;;;;;;;;;5042901;28;20041;-64
2022/04/05 01:09:15;;;;;;;3.45;0.73;;;;;;;;;;5043905;28;20040;-64
2022/04/05 01:11:42;;;;;;;5.10;0.68;;;;;;;;;;5052510;28;20051;-65
2022/04/05 01:14:09;;;;;;;7.90;1.05;;;;;;;;;;5043373;28;20094;-65
2022/04/05 01:16:38;;;;;;;2.95;0.60;;;;;;;;;;5043423;28;20056;-64
2022/04/05 01:19:07;;;;;;;1.48;0.45;;;;;;;;;;5045472;28;20037;-64
2022/04/05 01:21:36;;;;;;;6.45;0.82;;;;;;;;;;5044032;28;20041;-64
2022/04/05 01:24:06;;;;;;;8.30;0.70;;;;;;;;;;5034625;28;20111;-64
2022/04/05 01:26:40;;;;;;;4.13;0.68;;;;;;;;;;5043340;28;20151;-64
2022/04/05 01:29:06;;;;;;;;;;;;;;;;;;5042824;28;20037;-64
2022/04/05 01:31:47;;;;;;;2.00;0.40;;;;;;;;;;5038539;28;20011;-64
2022/04/05 01:34:14;;;;;;;11.73;1.10;;;;;;;;;;5035380;28;20516;-65
2022/04/05 01:36:43;;;;;;;25.77;1.48;;;;;;;;;;5040813;28;20092;-65
2022/04/05 01:39:15;;;;;;;18.45;2.45;;;;;;;;;;5041672;28;20037;-63
2022/04/05 01:41:42;;;;;;;30.60;3.72;;;;;;;;;;5037814;28;20041;-63
2022/04/05 01:44:09;;;;;;;47.92;3.65;;;;;;;;;;5018156;28;20045;-63
2022/04/05 01:46:36;;;;;;;22.40;1.95;;;;;;;;;;5015602;28;20053;-65
2022/04/05 01:49:07;;;;;;;11.63;1.52;;;;;;;;;;5035388;28;20042;-63
2022/04/05 01:51:37;;;;;;;4.78;0.90;;;;;;;;;;5036086;28;20528;-65
2022/04/05 01:54:09;;;;;;;2.63;0.75;;;;;;;;;;5039227;28;20048;-64
2022/04/05 01:56:46;;;;;;;9.35;1.33;;;;;;;;;;5047193;28;20501;-64
2022/04/05 01:59:14;;;;;;;11.10;1.10;;;;;;;;;;5048074;28;20093;-63
2022/04/05 02:01:41;;;;;;;4.25;0.60;;;;;;;;;;5047083;28;20040;-63
2022/04/05 02:04:09;;;;;;;2.40;0.55;;;;;;;;;;5039834;28;20118;-63
2022/04/05 02:06:36;;;;;;;5.43;0.82;;;;;;;;;;5025705;28;20076;-63
2022/04/05 02:09:03;;;;;;;5.68;0.70;;;;;;;;;;5046161;28;20045;-64
2022/04/05 02:11:31;;;;;;;2.13;0.60;;;;;;;;;;5033907;28;20118;-64
2022/04/05 02:13:58;;;;;;;3.60;0.70;;;;;;;;;;5046411;28;20120;-64
2022/04/05 02:16:25;;;;;;;6.43;0.75;;;;;;;;;;5045524;28;20049;-63
2022/04/05 02:18:52;;;;;;;3.92;0.50;;;;;;;;;;5035378;28;20070;-63
2022/04/05 02:21:18;;;;;;;7.55;1.10;;;;;;;;;;5046434;28;20972;-63
2022/04/05 02:23:45;;;;;;;6.22;0.70;;;;;;;;;;5044244;28;20060;-64
2022/04/05 02:26:12;;;;;;;3.97;0.52;;;;;;;;;;5039097;28;20048;-63
2022/04/05 02:28:39;;;;;;;2.20;0.47;;;;;;;;;;5040275;28;20161;-63
2022/04/05 02:31:05;;;;;;;2.38;0.50;;;;;;;;;;5027878;28;20065;-63
2022/04/05 02:33:32;;;;;;;1.95;0.60;;;;;;;;;;5043111;28;20812;-64
2022/04/05 02:35:59;;;;;;;8.32;0.60;;;;;;;;;;5045175;28;20044;-63
2022/04/05 02:38:26;;;;;;;3.00;0.63;;;;;;;;;;5033962;28;20041;-62
2022/04/05 02:40:53;;;;;;;6.70;0.70;;;;;;;;;;5034338;28;20041;-62
2022/04/05 02:43:20;;;;;;;2.28;0.70;;;;;;;;;;5042377;28;20053;-63
2022/04/05 02:45:47;;;;;;;12.57;0.98;;;;;;;;;;5043075;28;20033;-63
2022/04/05 02:48:13;;;;;;;11.40;1.42;;;;;;;;;;5044662;28;20036;-63
2022/04/05 02:50:40;;;;;;;0.80;0.35;;;;;;;;;;5042532;28;20544;-63
2022/04/05 02:53:07;;;;;;;5.72;0.80;;;;;;;;;;5043770;28;20064;-64
2022/04/05 02:55:34;;;;;;;1.50;0.40;;;;;;;;;;5043095;28;20051;-64
2022/04/05 02:58:00;;;;;;;1.08;0.45;;;;;;;;;;5042266;28;20052;-64
2022/04/05 03:00:27;;;;;;;2.20;0.60;;;;;;;;;;5053542;28;20041;-63
2022/04/05 03:02:54;;;;;;;1.83;0.50;;;;;;;;;;5054810;28;20048;-61
2022/04/05 03:05:22;;;;;;;33.13;2.65;;;;;;;;;;5035051;28;20124;-63
2022/04/05 03:07:49;;;;;;;8.30;1.00;;;;;;;;;;5043008;28;20044;-62
2022/04/05 03:10:16;;;;;;;2.20;0.50;;;;;;;;;;5044346;28;20040;-63
2022/04/05 03:12:42;;;;;;;4.47;0.90;;;;;;;;;;5033552;28;20041;-63
2022/04/05 03:15:10;;;;;;;2.95;0.70;;;;;;;;;;5032799;28;20141;-62
2022/04/05 03:17:42;;;;;;;1.98;0.45;;;;;;;;;;5043006;28;20041;-63
2022/04/05 03:20:12;;;;;;;2.17;0.50;;;;;;;;;;5044705;28;20044;-63
2022/04/05 03:22:42;;;;;;;2.00;0.57;;;;;;;;;;5044142;28;20568;-64
2022/04/05 03:25:10;;;;;;;8.05;0.75;;;;;;;;;;5035643;28;20033;-63
2022/04/05 03:27:44;;;;;;;2.65;0.60;;;;;;;;;;5019223;28;20044;-62
2022/04/05 03:30:11;;;;;;;3.13;0.70;;;;;;;;;;5045029;28;20547;-63
2022/04/05 03:32:38;;;;;;;0.73;0.40;;;;;;;;;;5042404;28;20033;-63
2022/04/05 03:35:05;;;;;;;1.10;0.40;;;;;;;;;;5043972;28;20414;-63
2022/04/05 03:37:32;;;;;;;1.10;0.40;;;;;;;;;;5044828;28;20456;-62
2022/04/05 03:39:59;;;;;;;1.38;0.40;;;;;;;;;;5043890;28;20414;-63
2022/04/05 03:42:26;;;;;;;4.15;0.50;;;;;;;;;;5042488;28;20059;-62
2022/04/05 03:44:53;;;;;;;5.05;0.60;;;;;;;;;;5040112;28;20799;-62
2022/04/05 03:47:19;;;;;;;2.33;0.70;;;;;;;;;;5055613;28;20093;-62
2022/04/05 03:49:46;;;;;;;2.38;0.40;;;;;;;;;;5042257;28;20758;-62
2022/04/05 03:52:13;;;;;;;0.90;0.40;;;;;;;;;;5041117;28;20044;-62
2022/04/05 03:54:40;;;;;;;0.55;0.30;;;;;;;;;;5028622;28;20033;-63
2022/04/05 03:57:06;;;;;;;1.65;0.47;;;;;;;;;;5018703;28;20171;-63
2022/04/05 03:59:33;;;;;;;0.82;0.38;;;;;;;;;;5037910;28;20049;-65
2022/04/05 04:02:00;;;;;;;0.93;0.40;;;;;;;;;;5027781;28;20525;-63
2022/04/05 04:04:26;;;;;;;0.98;0.40;;;;;;;;;;5016587;28;20164;-63
2022/04/05 04:06:53;;;;;;;0.88;0.30;;;;;;;;;;5018495;28;20033;-62
2022/04/05 04:09:20;;;;;;;1.40;0.40;;;;;;;;;;5039309;28;20076;-62
2022/04/05 04:11:46;;;;;;;1.98;0.43;;;;;;;;;;5031900;28;20124;-65
2022/04/05 04:14:13;;;;;;;0.88;0.38;;;;;;;;;;5042640;28;20101;-62
2022/04/05 04:16:40;;;;;;;1.42;0.47;;;;;;;;;;5031724;28;20144;-62
2022/04/05 04:19:07;;;;;;;1.67;0.50;;;;;;;;;;5041681;28;20130;-62
2022/04/05 04:21:34;;;;;;;2.10;0.50;;;;;;;;;;5031971;28;20055;-61
2022/04/05 04:24:01;;;;;;;2.97;0.93;;;;;;;;;;5036715;28;20053;-63
2022/04/05 04:26:27;;;;;;;2.30;0.80;;;;;;;;;;5018602;28;20037;-61
2022/04/05 04:29:02;;;;;;;2.08;0.60;;;;;;;;;;5048569;28;20133;-62
2022/04/05 04:31:29;;;;;;;3.42;0.60;;;;;;;;;;5041402;28;20069;-62
2022/04/05 04:33:56;;;;;;;1.88;0.65;;;;;;;;;;5054046;28;20037;-63
2022/04/05 04:36:22;;;;;;;2.42;0.80;;;;;;;;;;5043421;28;20413;-61
2022/04/05 04:38:50;;;;;;;1.10;0.43;;;;;;;;;;5043931;28;20454;-63
2022/04/05 04:41:17;;;;;;;2.70;0.40;;;;;;;;;;5045135;28;20150;-63
2022/04/05 04:43:44;;;;;;;0.85;0.40;;;;;;;;;;5055311;28;21910;-63
2022/04/05 04:46:10;;;;;;;2.83;0.50;;;;;;;;;;5044583;28;20464;-63
2022/04/05 04:48:37;;;;;;;4.15;0.93;;;;;;;;;;5060151;28;20167;-63
2022/04/05 04:51:04;;;;;;;1.95;0.52;;;;;;;;;;5032114;28;20039;-64
2022/04/05 04:53:31;;;;;;;1.23;0.45;;;;;;;;;;5041220;28;20048;-66
2022/04/05 04:55:58;;;;;;;0.68;0.30;;;;;;;;;;5037436;28;20041;-65
2022/04/05 04:58:25;;;;;;;1.05;0.40;;;;;;;;;;5028973;28;20037;-66
2022/04/05 05:00:52;;;;;;;0.80;0.40;;;;;;;;;;5034841;28;20036;-65
2022/04/05 05:03:19;;;;;;;1.17;0.43;;;;;;;;;;5049685;28;20049;-65
2022/04/05 05:05:46;;;;;;;1.85;0.45;;;;;;;;;;5031135;28;20041;-63
2022/04/05 05:08:12;;;;;;;8.35;0.60;;;;;;;;;;5041092;28;20141;-64
2022/04/05 05:10:39;;;;;;;5.10;0.60;;;;;;;;;;5033026;28;20036;-64
2022/04/05 05:13:06;;;;;;;1.05;0.43;;;;;;;;;;5042854;28;20044;-63
2022/04/05 05:15:33;;;;;;;0.73;0.40;;;;;;;;;;5038911;28;20059;-64
2022/04/05 05:17:59;;;;;;;1.95;0.60;;;;;;;;;;5035347;28;20079;-63
2022/04/05 05:20:26;;;;;;;5.30;0.50;;;;;;;;;;5017660;28;20048;-63
2022/04/05 05:22:53;;;;;;;1.48;0.45;;;;;;;;;;5032408;28;20132;-63
2022/04/05 05:25:20;;;;;;;2.90;0.57;;;;;;;;;;5047108;28;20075;-62
2022/04/05 05:27:46;;;;;;;2.33;0.50;;;;;;;;;;5046990;28;20704;-63
2022/04/05 05:30:13;;;;;;;2.60;0.50;;;;;;;;;;5048079;28;20052;-63
2022/04/05 05:32:44;;;;;;;1.98;0.60;;;;;;;;;;5042864;28;20048;-64
2022/04/05 05:35:11;;;;;;;1.13;0.40;;;;;;;;;;5031906;28;20037;-63
2022/04/05 05:37:38;;;;;;;0.63;0.40;;;;;;;;;;5045155;28;20068;-63
2022/04/05 05:40:06;;;;;;;1.38;0.50;;;;;;;;;;5040683;28;20037;-64
2022/04/05 05:42:33;;;;;;;1.95;0.60;;;;;;;;;;5047957;28;20519;-63
2022/04/05 05:45:00;;;;;;;3.13;0.52;;;;;;;;;;5038312;28;20047;-63
2022/04/05 05:47:26;;;;;;;6.60;0.57;;;;;;;;;;5047623;28;20461;-64
2022/04/05 05:49:53;;;;;;;1.73;0.60;;;;;;;;;;5048878;28;20045;-64
2022/04/05 05:52:20;;;;;;;3.42;0.60;;;;;;;;;;5037620;28;20045;-64
2022/04/05 05:54:49;;;;;;;1.55;0.60;;;;;;;;;;5048238;28;20041;-64
2022/04/05 05:57:16;;;;;;;1.50;0.40;;;;;;;;;;5040954;28;20040;-63
2022/04/05 05:59:43;;;;;;;4.10;0.43;;;;;;;;;;5047929;28;20401;-63
2022/04/05 06:02:09;;;;;;;8.15;0.60;;;;;;;;;;5040490;28;20486;-63
2022/04/05 06:04:36;;;;;;;1.65;0.45;;;;;;;;;;5036009;28;20488;-63
2022/04/05 06:07:03;;;;;;;1.98;0.50;;;;;;;;;;5048121;28;20717;-62
2022/04/05 06:09:29;;;;;;;1.45;0.50;;;;;;;;;;5049488;28;20036;-63
2022/04/05 06:11:56;;;;;;;1.85;0.60;;;;;;;;;;5050615;28;20052;-63
2022/04/05 06:14:23;;;;;;;0.70;0.40;;;;;;;;;;5047463;28;20084;-63
2022/04/05 06:16:49;;;;;;;6.47;0.52;;;;;;;;;;5050984;28;20045;-63
2022/04/05 06:19:16;;;;;;;2.28;0.47;;;;;;;;;;5050919;28;20397;-62
2022/04/05 06:21:43;;;;;;;6.20;0.50;;;;;;;;;;5048685;28;20068;-62
2022/04/05 06:24:09;;;;;;;1.95;0.50;;;;;;;;;;5050358;28;20056;-62
2022/04/05 06:26:36;;;;;;;1.13;0.40;;;;;;;;;;5040079;28;20040;-63
2022/04/05 06:29:03;;;;;;;1.63;0.40;;;;;;;;;;5051392;28;20048;-63
2022/04/05 06:31:30;;;;;;;0.65;0.32;;;;;;;;;;5051100;28;20040;-63
2022/04/05 06:33:58;;;;;;;0.30;0.30;;;;;;;;;;5052225;28;20040;-63
2022/04/05 06:36:25;;;;;;;1.95;0.60;;;;;;;;;;5046913;28;20746;-63
2022/04/05 06:38:52;;;;;;;1.65;0.47;;;;;;;;;;5047023;28;20268;-63
2022/04/05 06:41:18;;;;;;;1.33;0.47;;;;;;;;;;5037889;28;20033;-63
2022/04/05 06:43:45;;;;;;;2.40;0.40;;;;;;;;;;5060611;28;20045;-63
2022/04/05 06:46:14;;;;;;;2.95;0.50;;;;;;;;;;5037082;28;20041;-62
2022/04/05 06:48:41;;;;;;;1.48;0.45;;;;;;;;;;5046356;28;20044;-63
2022/04/05 06:51:07;;;;;;;1.83;0.55;;;;;;;;;;5048143;28;20056;-63
2022/04/05 06:53:34;;;;;;;1.40;0.50;;;;;;;;;;5045032;28;20041;-63
2022/04/05 06:56:01;;;;;;;2.75;0.50;;;;;;;;;;5050130;28;20041;-63
2022/04/05 06:58:28;;;;;;;0.80;0.40;;;;;;;;;;5061830;28;20467;-63
2022/04/05 07:00:54;;;;;;;1.65;0.50;;;;;;;;;;5032756;28;20468;-63
2022/04/05 07:03:21;;;;;;;1.55;0.30;;;;;;;;;;5023191;28;20520;-64
2022/04/05 07:05:48;;;;;;;0.63;0.40;;;;;;;;;;5048780;28;20045;-64
2022/04/05 07:08:15;;;;;;;1.10;0.50;;;;;;;;;;5030678;28;20033;-62
2022/04/05 07:10:41;;;;;;;1.25;0.43;;;;;;;;;;5048230;28;20045;-63
2022/04/05 07:13:08;;;;;;;1.25;0.43;;;;;;;;;;5045360;28;20068;-63
2022/04/05 07:15:35;;;;;;;1.65;0.60;;;;;;;;;;5044279;28;20053;-63
2022/04/05 07:18:02;;;;;;;1.52;0.47;;;;;;;;;;5044390;28;20055;-63
2022/04/05 07:20:28;;;;;;;1.40;0.40;;;;;;;;;;5044376;28;20095;-62
2022/04/05 07:22:55;;;;;;;1.38;0.40;;;;;;;;;;5043174;28;20049;-62
2022/04/05 07:25:23;;;;;;;0.93;0.40;;;;;;;;;;5055183;28;20068;-63
2022/04/05 07:27:51;;;;;;;2.08;0.40;;;;;;;;;;5044451;28;20682;-62
2022/04/05 07:30:18;;;;;;;1.70;0.50;;;;;;;;;;5046897;28;20029;-62
2022/04/05 07:32:46;;;;;;;1.38;0.40;;;;;;;;;;5032488;28;20102;-63
2022/04/05 07:35:16;;;;;;;0.98;0.40;;;;;;;;;;5063106;28;20043;-63
2022/04/05 07:37:42;;;;;;;0.75;0.40;;;;;;;;;;5044110;28;20044;-62
2022/04/05 07:40:10;;;;;;;3.10;0.55;;;;;;;;;;5041721;28;20040;-62
2022/04/05 07:42:45;;;;;;;1.50;0.45;;;;;;;;;;5045379;28;20056;-62
2022/04/05 07:45:12;;;;;;;2.05;0.60;;;;;;;;;;5057787;28;20067;-62
2022/04/05 07:47:40;;;;;;;1.83;0.50;;;;;;;;;;5043164;28;20064;-63
2022/04/05 07:50:07;;;;;;;1.25;0.43;;;;;;;;;;5046553;28;20048;-63
2022/04/05 07:52:34;;;;;;;1.13;0.50;;;;;;;;;;5044074;28;20071;-62
2022/04/05 07:55:01;;;;;;;1.15;0.40;;;;;;;;;;5043639;28;20037;-62
2022/04/05 07:57:28;;;;;;;0.82;0.40;;;;;;;;;;5043277;28;20040;-63
2022/04/05 07:59:55;;;;;;;1.52;0.40;;;;;;;;;;5043964;28;20075;-63
2022/04/05 08:02:21;;;;;;;0.93;0.40;;;;;;;;;;5042531;28;20037;-63
2022/04/05 08:04:48;;;;;;;1.55;0.40;;;;;;;;;;5044683;28;20079;-63
2022/04/05 08:07:15;;;;;;;1.05;0.40;;;;;;;;;;5043629;28;20044;-62
2022/04/05 08:09:41;;;;;;;1.70;0.40;;;;;;;;;;5042248;28;20040;-62
2022/04/05 08:12:08;;;;;;;4.07;0.50;;;;;;;;;;5043787;28;20033;-63
2022/04/05 08:14:35;;;;;;;1.38;0.50;;;;;;;;;;5041474;28;20540;-63
2022/04/05 08:17:02;;;;;;;1.13;0.40;;;;;;;;;;5036667;28;20057;-64
2022/04/05 08:19:28;;;;;;;1.20;0.40;;;;;;;;;;5051811;28;20136;-63
2022/04/05 08:21:55;;;;;;;3.70;0.50;;;;;;;;;;5037896;28;20033;-64
2022/04/05 08:24:22;;;;;;;2.55;0.40;;;;;;;;;;5016814;28;20057;-63
2022/04/05 08:26:49;;;;;;;1.05;0.40;;;;;;;;;;5044413;28;20156;-63
2022/04/05 08:29:16;;;;;;;1.73;0.50;;;;;;;;;;5035419;28;20076;-63
2022/04/05 08:31:42;;;;;;;1.10;0.40;;;;;;;;;;5016898;28;20033;-64
2022/04/05 08:34:09;;;;;;;1.73;0.50;;;;;;;;;;5019864;28;20033;-62
2022/04/05 08:36:36;;;;;;;2.80;0.40;;;;;;;;;;5022226;28;20064;-64
2022/04/05 08:39:03;;;;;;;1.17;0.50;;;;;;;;;;5036878;28;20045;-62
2022/04/05 08:41:32;;;;;;;1.23;0.40;;;;;;;;;;5029663;28;20044;-63
2022/04/05 08:44:01;;;;;;;1.10;0.40;;;;;;;;;;5043199;28;20932;-62
2022/04/05 08:46:30;;;;;;;3.13;0.50;;;;;;;;;;5040328;28;20071;-62
2022/04/05 08:48:56;;;;;;;1.13;0.40;;;;;;;;;;5041484;28;20139;-63
2022/04/05 08:51:23;;;;;;;4.47;0.60;;;;;;;;;;5041269;28;20052;-61
2022/04/05 08:53:50;;;;;;;1.23;0.40;;;;;;;;;;5041273;28;20048;-63
2022/04/05 08:56:16;;;;;;;0.68;0.40;;;;;;;;;;5042107;28;20108;-63
2022/04/05 08:58:43;;;;;;;1.08;0.40;;;;;;;;;;5021418;28;20496;-61
2022/04/05 09:01:10;;;;;;;3.85;0.45;;;;;;;;;;5041774;28;20954;-63
2022/04/05 09:03:37;;;;;;;1.10;0.40;;;;;;;;;;5041711;28;20057;-63
2022/04/05 09:06:22;;;;;;;1.13;0.40;;;;;;;;;;5041155;28;20064;-63
2022/04/05 09:08:49;;;;;;;1.77;0.50;;;;;;;;;;5040885;28;20041;-62
2022/04/05 09:11:20;;;;;;;1.90;0.50;;;;;;;;;;5042112;28;20045;-62
2022/04/05 09:13:58;;;;;;;1.13;0.40;;;;;;;;;;5026868;28;20112;-62
2022/04/05 09:16:31;;;;;;;1.55;0.50;;;;;;;;;;5038234;28;20780;-63
2022/04/05 09:18:59;;;;;;;4.68;0.40;;;;;;;;;;5025309;28;20097;-62
2022/04/05 09:21:26;;;;;;;1.38;0.50;;;;;;;;;;5027827;28;20041;-62
2022/04/05 09:23:52;;;;;;;1.30;0.50;;;;;;;;;;5041336;28;20037;-62
2022/04/05 09:26:20;;;;;;;0.68;0.30;;;;;;;;;;5024452;28;20046;-62
2022/04/05 09:28:48;;;;;;;0.65;0.40;;;;;;;;;;5040743;28;20049;-61
2022/04/05 09:31:17;;;;;;;0.93;0.35;;;;;;;;;;5041433;28;20033;-62
2022/04/05 09:34:04;;;;;;;1.00;0.40;;;;;;;;;;5040738;28;20117;-63
2022/04/05 09:36:41;;;;;;;1.48;0.50;;;;;;;;;;5041111;28;20052;-63
2022/04/05 09:39:11;;;;;;;4.78;0.50;;;;;;;;;;5041720;28;20494;-61
2022/04/05 09:41:38;;;;;;;1.17;0.40;;;;;;;;;;5021889;28;20120;-62
2022/04/05 09:44:04;;;;;;;3.25;0.60;;;;;;;;;;5040925;28;20083;-62
2022/04/05 09:46:33;;;;;;;1.02;0.40;;;;;;;;;;5038764;28;20025;-62
2022/04/05 09:49:05;;;;;;;1.67;0.50;;;;;;;;;;5034136;28;20041;-62
2022/04/05 09:51:36;;;;;;;1.07;0.40;;;;;;;;;;5041859;28;20045;-61
2022/04/05 09:54:28;;;;;;;0.77;0.40;;;;;;;;;;5055046;28;20052;-64
2022/04/05 09:57:03;;;;;;;0.47;0.30;;;;;;;;;;5057452;28;20040;-62
2022/04/05 09:59:40;;;;;;;0.75;0.50;;;;;;;;;;5046790;28;20401;-63
2022/04/05 10:02:10;;;;;;;2.20;0.50;;;;;;;;;;5041878;28;20037;-63
2022/04/05 10:04:56;;;;;;;1.30;0.43;;;;;;;;;;5054378;28;20048;-63
2022/04/05 10:07:24;;;;;;;1.25;0.40;;;;;;;;;;5056151;28;20342;-63
2022/04/05 10:09:51;;;;;;;1.58;0.45;;;;;;;;;;5043857;28;20037;-63
2022/04/05 10:12:18;;;;;;;1.75;0.50;;;;;;;;;;5038683;28;20044;-63
2022/04/05 10:14:44;;;;;;;1.60;0.50;;;;;;;;;;5059005;28;20040;-63
2022/04/05 10:17:13;;;;;;;2.90;0.50;;;;;;;;;;5048025;28;20095;-63
2022/04/05 10:19:45;;;;;;;0.93;0.40;;;;;;;;;;5053649;28;20072;-62
2022/04/05 10:22:13;;;;;;;1.52;0.50;;;;;;;;;;5064842;28;20068;-62
2022/04/05 10:24:40;;;;;;;0.47;0.40;;;;;;;;;;5059663;28;20453;-62
2022/04/05 10:27:08;;;;;;;1.23;0.40;;;;;;;;;;5044899;28;20120;-61
2022/04/05 10:29:35;;;;;;;1.02;0.50;;;;;;;;;;5025905;28;20046;-60
2022/04/05 10:32:01;;;;;;;0.63;0.43;;;;;;;;;;5039822;28;20040;-62
2022/04/05 10:34:50;;;;;;;0.60;0.30;;;;;;;;;;5034439;28;20052;-62
2022/04/05 10:37:18;;;;;;;1.23;0.50;;;;;;;;;;5045788;28;20057;-61
2022/04/05 10:40:10;;;;;;;0.95;0.43;;;;;;;;;;5040270;28;20030;-62
2022/04/05 10:42:40;;;;;;;0.88;0.40;;;;;;;;;;5032098;28;20486;-62
2022/04/05 10:45:29;;;;;;;0.95;0.30;;;;;;;;;;5034860;28;20040;-62
2022/04/05 10:48:12;;;;;;;0.68;0.30;;;;;;;;;;5033311;28;20691;-62
2022/04/05 10:50:43;;;;;;;0.40;0.40;;;;;;;;;;5042522;28;20052;-63
2022/04/05 10:53:21;;;;;;;0.60;0.40;;;;;;;;;;5043637;28;20033;-62
2022/04/05 10:56:07;;;;;;;0.30;0.30;;;;;;;;;;5043779;28;20479;-62
2022/04/05 10:58:39;;;;;;;0.98;0.40;;;;;;;;;;5043443;28;20534;-62
2022/04/05 11:01:24;;;;;;;2.10;0.50;;;;;;;;;;5044304;28;20048;-62
2022/04/05 11:04:12;;;;;;;0.93;0.40;;;;;;;;;;5044035;28;20056;-62
2022/04/05 11:06:56;;;;;;;0.20;0.20;;;;;;;;;;5032635;28;20112;-62
2022/04/05 11:09:27;;;;;;;0.68;0.30;;;;;;;;;;5044434;28;20041;-62
2022/04/05 11:11:54;;;;;;;0.43;0.30;;;;;;;;;;5045287;28;20580;-62
2022/04/05 11:14:41;;;;;;;0.70;0.40;;;;;;;;;;5042016;28;20025;-62
2022/04/05 11:17:09;;;;;;;0.43;0.30;;;;;;;;;;5044405;28;20082;-63
2022/04/05 11:19:39;;;;;;;0.73;0.30;;;;;;;;;;5044064;28;20043;-63
2022/04/05 11:22:25;;;;;;;0.82;0.40;;;;;;;;;;5045391;28;20677;-63
2022/04/05 11:24:55;;;;;;;1.63;0.40;;;;;;;;;;5057030;28;20068;-61
2022/04/05 11:27:45;;;;;;;1.05;0.43;;;;;;;;;;5036080;28;20171;-62
2022/04/05 11:30:27;;;;;;;0.98;0.40;;;;;;;;;;5040753;28;20616;-63
2022/04/05 11:33:12;;;;;;;4.65;0.50;;;;;;;;;;5038106;28;20044;-62
2022/04/05 11:35:54;;;;;;;1.20;0.40;;;;;;;;;;5042997;28;20787;-61
2022/04/05 11:38:21;;;;;;;0.65;0.30;;;;;;;;;;5045055;28;20040;-61
2022/04/05 11:40:52;;;;;;;0.98;0.35;;;;;;;;;;5034254;28;20041;-62
2022/04/05 11:43:24;;;;;;;0.77;0.40;;;;;;;;;;5045769;28;20575;-63
2022/04/05 11:45:53;;;;;;;1.30;0.50;;;;;;;;;;5046324;28;20048;-63
2022/04/05 11:48:21;;;;;;;1.80;0.35;;;;;;;;;;5044347;28;20048;-63
2022/04/05 11:50:48;;;;;;;1.08;0.40;;;;;;;;;;5027111;28;20041;-63
2022/04/05 11:53:21;;;;;;;1.65;0.40;;;;;;;;;;5020024;28;20052;-63
2022/04/05 11:56:06;;;;;;;1.02;0.40;;;;;;;;;;5045062;28;20048;-63
2022/04/05 11:58:38;;;;;;;1.23;0.40;;;;;;;;;;5046249;28;20075;-63
2022/04/05 12:01:06;;;;;;;1.33;0.40;;;;;;;;;;5044499;28;20047;-63
2022/04/05 12:03:47;;;;;;;0.70;0.40;;;;;;;;;;5043720;28;20199;-63
2022/04/05 12:06:17;;;;;;;1.25;0.40;;;;;;;;;;5043565;28;20114;-63
2022/04/05 12:08:44;;;;;;;1.23;0.50;;;;;;;;;;5033596;28;20032;-62
2022/04/05 12:11:11;;;;;;;1.15;0.40;;;;;;;;;;5043229;28;20032;-62
2022/04/05 12:13:38;;;;;;;1.08;0.38;;;;;;;;;;5041294;28;20555;-62
2022/04/05 12:16:06;;;;;;;1.13;0.40;;;;;;;;;;5040758;28;21211;-62
2022/04/05 12:18:33;;;;;;;1.17;0.40;;;;;;;;;;5029645;28;20495;-63
2022/04/05 12:21:04;;;;;;;2.42;0.80;;;;;;;;;;5031994;28;20052;-64
2022/04/05 12:23:35;;;;;;;1.27;0.50;;;;;;;;;;5039848;28;20047;-64
2022/04/05 12:26:03;;;;;;;0.93;0.30;;;;;;;;;;5040396;28;20045;-63
2022/04/05 12:28:30;;;;;;;5.15;0.70;;;;;;;;;;5040102;28;20046;-64
2022/04/05 12:31:11;;;;;;;1.08;0.40;;;;;;;;;;5041951;28;20061;-63
2022/04/05 12:33:38;;;;;;;2.67;0.52;;;;;;;;;;5039676;28;20043;-62
2022/04/05 12:36:06;;;;;;;1.23;0.40;;;;;;;;;;5042133;28;20079;-62
2022/04/05 12:38:33;;;;;;;1.58;0.47;;;;;;;;;;5055303;28;20041;-63
2022/04/05 12:41:03;;;;;;;0.88;0.40;;;;;;;;;;5042057;28;20056;-62
2022/04/05 12:43:29;;;;;;;1.23;0.45;;;;;;;;;;5038918;28;20143;-63
2022/04/05 12:45:56;;;;;;;1.05;0.40;;;;;;;;;;5033290;28;20033;-64
2022/04/05 12:48:23;;;;;;;1.25;0.50;;;;;;;;;;5031176;28;20048;-63
2022/04/05 12:50:51;;;;;;;1.05;0.38;;;;;;;;;;5032447;28;20060;-63
2022/04/05 12:53:44;;;;;;;4.40;0.40;;;;;;;;;;5034381;28;20047;-63
2022/04/05 12:56:14;;;;;;;1.58;0.50;;;;;;;;;;5039544;28;20064;-63
2022/04/05 12:58:49;;;;;;;2.03;0.40;;;;;;;;;;5039602;28;20048;-62
2022/04/05 13:01:19;;;;;;;1.73;0.60;;;;;;;;;;5041712;28;20090;-63
2022/04/05 13:03:47;;;;;;;1.48;0.60;;;;;;;;;;5027482;28;20789;-63
2022/04/05 13:06:24;;;;;;;2.75;0.60;;;;;;;;;;5036247;28;20079;-62
2022/04/05 13:08:53;;;;;;;1.50;0.40;;;;;;;;;;5056793;28;20148;-63
2022/04/05 13:11:25;;;;;;;6.65;0.70;;;;;;;;;;5042510;28;20037;-64
2022/04/05 13:14:01;;;;;;;1.55;0.30;;;;;;;;;;5026292;28;20415;-64
2022/04/05 13:16:28;;;;;;;1.65;0.47;;;;;;;;;;5053820;28;20056;-64
2022/04/05 13:18:55;;;;;;;6.60;0.52;;;;;;;;;;5043422;28;20033;-63
2022/04/05 13:21:22;;;;;;;1.17;0.40;;;;;;;;;;5040816;28;20409;-63
2022/04/05 13:24:05;;;;;;;0.63;0.40;;;;;;;;;;5031545;28;20056;-64
2022/04/05 13:26:32;;;;;;;1.45;0.40;;;;;;;;;;5040039;28;20045;-64
2022/04/05 13:29:11;;;;;;;2.75;0.40;;;;;;;;;;5041526;28;20112;-64
2022/04/05 13:31:54;;;;;;;1.13;0.40;;;;;;;;;;5043488;28;20075;-62
2022/04/05 13:34:25;;;;;;;1.17;0.47;;;;;;;;;;5057410;28;20037;-64
2022/04/05 13:36:55;;;;;;;3.45;0.50;;;;;;;;;;5042289;28;20071;-62
2022/04/05 13:39:23;;;;;;;5.05;0.50;;;;;;;;;;5041541;28;20616;-62
2022/04/05 13:41:52;;;;;;;2.28;0.60;;;;;;;;;;5045703;28;20041;-63
2022/04/05 13:44:23;;;;;;;1.13;0.40;;;;;;;;;;5044369;28;20049;-62
2022/04/05 13:46:50;;;;;;;1.75;0.50;;;;;;;;;;5041926;28;20489;-64
2022/04/05 13:49:17;;;;;;;4.40;0.55;;;;;;;;;;5021107;28;20106;-62
2022/04/05 13:51:45;;;;;;;2.75;0.52;;;;;;;;;;5045892;28;20510;-64
2022/04/05 13:54:12;;;;;;;2.13;0.50;;;;;;;;;;5047012;28;20051;-64
2022/04/05 13:56:41;;;;;;;5.93;0.60;;;;;;;;;;5045625;28;20037;-64
2022/04/05 13:59:09;;;;;;;1.42;0.50;;;;;;;;;;5046764;28;20041;-64
2022/04/05 14:04:21;;;;;;;10.25;0.82;;;;;;;;;;5035884;28;20061;-63
2022/04/05 14:06:48;;;;;;;2.67;0.80;;;;;;;;;;5035890;28;20120;-64
2022/04/05 14:09:15;;;;;;;5.22;0.63;;;;;;;;;;5046996;28;20417;-64
2022/04/05 14:11:43;;;;;;;1.77;0.60;;;;;;;;;;5045657;28;20068;-63
2022/04/05 14:14:10;;;;;;;2.20;0.73;;;;;;;;;;5044948;28;20040;-64
2022/04/05 14:16:37;;;;;;;2.20;0.65;;;;;;;;;;5043985;28;20056;-62
2022/04/05 14:19:04;;;;;;;2.08;0.60;;;;;;;;;;5045979;28;20036;-63
2022/04/05 14:21:31;;;;;;;2.13;0.60;;;;;;;;;;5045571;28;20045;-63
2022/04/05 14:23:58;;;;;;;1.52;0.50;;;;;;;;;;5046361;28;20041;-62
2022/04/05 14:26:24;;;;;;;5.28;0.70;;;;;;;;;;5045160;28;20482;-63
2022/04/05 14:28:51;;;;;;;2.20;0.50;;;;;;;;;;5046510;28;20048;-62
2022/04/05 14:31:18;;;;;;;2.53;0.60;;;;;;;;;;5046166;28;20066;-64
2022/04/05 14:33:45;;;;;;;4.25;0.50;;;;;;;;;;5041474;28;20059;-63
2022/04/05 14:36:11;;;;;;;3.17;0.50;;;;;;;;;;5042402;28;20040;-63
2022/04/05 14:38:38;;;;;;;1.40;0.50;;;;;;;;;;5046069;28;20029;-63
2022/04/05 14:41:05;;;;;;;1.13;0.40;;;;;;;;;;5046268;28;20214;-63
2022/04/05 14:43:32;;;;;;;1.88;0.50;;;;;;;;;;5061305;28;20049;-63
2022/04/05 14:45:59;;;;;;;0.93;0.40;;;;;;;;;;5046253;28;20043;-62
2022/04/05 14:48:25;;;;;;;1.33;0.40;;;;;;;;;;5045318;28;20083;-64
2022/04/05 14:50:53;;;;;;;1.02;0.40;;;;;;;;;;5046649;28;20051;-62
2022/04/05 14:53:21;;;;;;;1.23;0.50;;;;;;;;;;5046185;28;20041;-63
2022/04/05 14:55:48;;;;;;;2.40;0.40;;;;;;;;;;5039662;28;20065;-63